Terminal Aerodrome Forecast
Issued by NWS

Home | Current Version | Previous Version | Text Only | Print | Product List | Glossary On
Versions: 1 2 3 4 5 6 7 8 9 10 11 12 13 14 15
000
FTUS46 KSTO 190539
TAFSCK
TAF
KSCK 190539Z 1906/2006 VRB04KT 6SM BR SCT250
     FM190900 VRB03KT 4SM BR BKN250
      TEMPO 1913/1917 1/4SM FG SCT250
     FM191700 28003KT P6SM BKN250=

USA.gov is the U.S. government's official web portal to all federal, state and local government web resources and services.